EST,Max TemperatureF,Mean TemperatureF,Min TemperatureF,Max Dew PointF,MeanDew PointF,Min DewpointF,Max Humidity, Mean Humidity, Min Humidity, Max Sea Level PressureIn, Mean Sea Level PressureIn, Min Sea Level PressureIn, Max VisibilityMiles, Mean VisibilityMiles, Min VisibilityMiles, Max Wind SpeedMPH, Mean Wind SpeedMPH, Max Gust SpeedMPH,PrecipitationIn, CloudCover, Events, WindDirDegrees
2013-12-1,52,49,46,49,46,43,93,88,77,30.31,30.20,30.04,10,10,10,10,6,,0.00,7,Rain,359
2013-12-2,55,52,48,48,47,44,93,84,72,30.02,29.90,29.80,10,10,10,10,6,,0.00,6,,3
2013-12-3,59,52,44,44,39,28,90,67,32,30.06,29.98,29.87,10,10,10,8,6,,0.00,0,,356
2013-12-4,68,60,53,63,58,53,100,95,84,30.14,30.07,30.03,,,,6,3,,0.00,8,Rain,299
2013-12-5,75,64,52,67,60,51,100,90,64,30.20,30.15,30.12,,,,13,5,21,0.00,4,,188
2013-12-6,78,74,70,69,68,66,93,84,68,30.18,30.12,30.08,,,,24,13,34,0.00,3,Rain,210
2013-12-7,72,59,46,70,54,42,94,89,83,30.42,30.23,30.07,,,,20,17,30,0.00,6,Rain,341
2013-12-8,50,48,46,47,44,42,93,91,80,30.40,30.34,30.26,,,,20,15,28,0.00,8,Rain,4
2013-12-9,73,60,46,66,54,44,100,93,78,30.25,30.17,30.09,,,,14,5,22,0.00,6,Rain,261
2013-12-10,73,58,43,66,52,36,100,89,76,30.33,30.05,29.84,,,,22,8,50,0.00,6,Rain,313
2013-12-11,48,42,37,35,29,24,89,60,41,30.48,30.38,30.31,10,10,10,14,9,,0.00,0,,312
2013-12-12,46,42,37,32,30,27,73,62,50,30.41,30.33,30.27,,,,18,10,25,0.00,0,,349
2013-12-13,52,43,34,33,27,18,89,58,27,30.45,30.37,30.32,,,,12,5,,0.00,0,,233
2013-12-14,68,56,44,63,46,34,90,74,61,30.35,30.07,29.78,,,,22,9,40,0.00,6,Rain,129
2013-12-15,64,55,44,53,44,36,93,78,69,30.07,29.82,29.69,,,,17,9,23,0.00,5,Rain,262
2013-12-16,55,47,39,43,35,32,93,66,44,30.22,30.16,30.08,,,,16,9,21,0.00,0,,263
2013-12-17,62,52,43,47,43,39,93,69,44,30.19,30.09,29.96,,,,20,10,30,0.00,0,,215
2013-12-18,55,46,37,42,30,23,80,56,35,30.34,30.21,29.99,,,,17,12,23,0.00,0,,309
2013-12-19,61,48,34,46,36,24,90,66,44,30.38,30.33,30.29,,,,16,8,23,0.00,0,,201
2013-12-20,73,60,48,60,54,47,97,85,55,30.31,30.25,30.19,,,,13,5,21,0.00,3,,178
2013-12-21,73,65,57,67,62,56,100,89,71,30.22,30.18,30.16,,,,12,6,18,0.00,2,,176
2013-12-22,79,74,69,70,68,66,97,86,69,30.18,30.16,30.13,,,,23,13,34,0.00,4,Rain,203
2013-12-23,78,69,55,70,67,53,93,87,76,30.16,30.10,30.04,,,,23,14,34,0.00,4,Rain,209
2013-12-24,52,48,44,50,41,29,93,81,55,30.37,30.16,30.06,,,,22,17,26,0.00,6,Rain,348
2013-12-25,43,39,35,37,30,23,82,68,59,30.53,30.46,30.39,,,,17,13,23,0.00,3,,15
2013-12-26,50,46,43,48,41,35,93,85,71,30.37,30.31,30.25,10,10,10,13,8,,0.00,8,Rain,352
2013-12-27,52,47,42,37,35,33,74,63,50,30.43,30.39,30.34,,,,15,11,25,0.00,0,,25
2013-12-28,53,47,41,45,37,26,83,66,37,30.43,30.34,30.19,10,10,10,9,7,,0.00,0,,32
2013-12-29,71,62,52,67,60,46,93,85,70,30.15,29.88,29.73,,,,29,14,47,0.00,6,Rain,197
2013-12-30,57,52,46,50,46,44,96,81,60,30.13,30.05,29.94,,,,9,6,,0.00,1,,302
2013-12-31,52,48,44,46,40,34,93,77,50,30.38,30.24,30.10,,,,16,7,24,0.00,3,,322